createdAt,value
2022-11-10T00:00:11.685Z,21.35
2022-11-10T00:03:06.097Z,17.35
2022-11-10T00:05:51.408Z,16.85
2022-11-10T00:08:37.650Z,16.67
2022-11-10T00:11:23.450Z,14.93
2022-11-10T00:14:28.585Z,11.88
2022-11-10T00:17:14.144Z,14.95
2022-11-10T00:20:00.051Z,10.85
2022-11-10T00:22:45.456Z,13.00
2022-11-10T00:25:32.658Z,13.25
2022-11-10T00:28:18.125Z,12.93
2022-11-10T00:31:07.677Z,14.45
2022-11-10T00:33:53.092Z,15.15
2022-11-10T00:36:38.950Z,18.52
2022-11-10T00:39:24.605Z,21.08
2022-11-10T00:42:10.517Z,27.77
2022-11-10T00:44:56.404Z,14.75
2022-11-10T00:47:41.770Z,11.67
2022-11-10T00:50:27.627Z,8.77
2022-11-10T00:53:13.297Z,15.75
2022-11-10T00:55:58.992Z,17.65
2022-11-10T00:58:44.771Z,18.40
2022-11-10T01:01:30.355Z,15.95
2022-11-10T01:04:15.969Z,10.55
2022-11-10T01:07:01.816Z,11.82
2022-11-10T01:09:47.438Z,16.73
2022-11-10T01:12:33.456Z,21.50
2022-11-10T01:15:26.027Z,13.65
2022-11-10T01:18:12.930Z,12.57
2022-11-10T01:20:58.694Z,16.35
2022-11-10T01:23:44.265Z,25.60
2022-11-10T01:26:29.827Z,15.13
2022-11-10T01:29:15.638Z,20.55
2022-11-10T01:32:00.839Z,12.30
2022-11-10T01:34:46.231Z,21.83
2022-11-10T01:37:31.795Z,20.58
2022-11-10T01:40:17.741Z,15.10
2022-11-10T01:43:03.181Z,15.43
2022-11-10T01:46:06.879Z,23.48
2022-11-10T01:49:03.476Z,21.50
2022-11-10T01:51:55.752Z,13.10
2022-11-10T01:54:47.309Z,17.48
2022-11-10T01:57:33.591Z,22.73
2022-11-10T02:03:36.184Z,19.02
2022-11-10T02:06:27.582Z,14.73
2022-11-10T02:09:13.793Z,15.00
2022-11-10T02:11:59.381Z,24.45
2022-11-10T02:14:44.944Z,19.45
2022-11-10T02:17:30.520Z,17.00
2022-11-10T02:20:19.999Z,16.02
2022-11-10T02:23:34.748Z,19.88
2022-11-10T02:26:27.605Z,17.23
2022-11-10T02:29:15.368Z,15.95
2022-11-10T02:32:00.845Z,20.65
2022-11-10T02:34:46.400Z,15.77
2022-11-10T02:37:32.097Z,21.50
2022-11-10T02:40:17.797Z,20.00
2022-11-10T02:43:07.545Z,17.80
2022-11-10T02:45:53.357Z,24.73
2022-11-10T02:48:38.898Z,22.50
2022-11-10T02:51:24.628Z,16.58
2022-11-10T02:54:10.579Z,15.90
2022-11-10T02:56:56.105Z,19.27
2022-11-10T02:59:41.725Z,19.20
2022-11-10T03:02:32.086Z,17.02
2022-11-10T03:05:17.820Z,16.17
2022-11-10T03:08:04.474Z,14.82
2022-11-10T03:10:54.524Z,18.85
2022-11-10T03:14:00.402Z,26.95
2022-11-10T03:16:45.941Z,24.60
2022-11-10T03:19:31.699Z,14.65
2022-11-10T03:22:17.691Z,25.30
2022-11-10T03:25:04.287Z,23.00
2022-11-10T03:27:50.160Z,20.75
2022-11-10T03:30:35.918Z,20.45
2022-11-10T03:33:21.845Z,26.50
2022-11-10T03:36:07.706Z,25.27
2022-11-10T03:38:53.220Z,17.58
2022-11-10T03:41:38.717Z,26.02
2022-11-10T03:44:24.702Z,34.85
2022-11-10T03:47:10.241Z,18.80
2022-11-10T03:49:55.897Z,24.85
2022-11-10T03:52:44.476Z,18.63
2022-11-10T03:55:29.963Z,19.55
2022-11-10T03:58:15.737Z,19.75
2022-11-10T04:01:01.501Z,18.83
2022-11-10T04:03:51.247Z,15.68
2022-11-10T04:06:55.947Z,17.70
2022-11-10T04:09:41.492Z,13.45
2022-11-10T04:12:45.684Z,18.85
2022-11-10T04:15:43.188Z,20.55
2022-11-10T04:18:29.907Z,15.85
2022-11-10T04:21:15.791Z,18.15
2022-11-10T04:24:01.760Z,26.30
2022-11-10T04:26:48.676Z,16.05
2022-11-10T04:29:34.303Z,19.60
2022-11-10T04:32:19.742Z,12.63
2022-11-10T04:35:05.674Z,18.98
2022-11-10T04:37:51.602Z,20.40
2022-11-10T04:40:37.290Z,22.38
2022-11-10T04:43:23.346Z,24.48
2022-11-10T04:46:28.151Z,28.10
2022-11-10T04:49:13.947Z,21.13
2022-11-10T04:51:59.816Z,13.85
2022-11-10T04:54:45.320Z,14.52
2022-11-10T04:57:31.078Z,19.33
2022-11-10T05:00:17.485Z,19.30
2022-11-10T05:03:07.426Z,19.30
2022-11-10T05:05:53.204Z,17.77
2022-11-10T05:08:40.813Z,17.52
2022-11-10T05:11:26.441Z,17.85
2022-11-10T05:14:12.318Z,16.38
2022-11-10T05:16:57.906Z,17.95
2022-11-10T05:19:43.367Z,24.45
2022-11-10T05:22:28.870Z,17.75
2022-11-10T05:25:14.365Z,15.10
2022-11-10T05:28:00.186Z,16.63
2022-11-10T05:30:45.969Z,12.35
2022-11-10T05:33:31.756Z,18.65
2022-11-10T05:36:17.402Z,18.75
2022-11-10T05:39:02.886Z,13.75
2022-11-10T05:41:48.901Z,19.33
2022-11-10T05:44:34.295Z,8.88
2022-11-10T05:47:20.399Z,18.33
2022-11-10T05:50:08.110Z,17.75
2022-11-10T05:52:55.392Z,15.48
2022-11-10T05:55:41.146Z,15.60
2022-11-10T05:58:26.893Z,16.42
2022-11-10T06:01:12.674Z,18.20
2022-11-10T06:03:58.340Z,16.00
2022-11-10T06:06:43.780Z,12.60
2022-11-10T06:09:30.943Z,21.88
2022-11-10T06:12:16.735Z,16.85
2022-11-10T06:15:02.926Z,13.20
2022-11-10T06:17:48.622Z,24.83
2022-11-10T06:20:34.130Z,16.85
2022-11-10T06:23:20.092Z,26.33
2022-11-10T06:26:06.156Z,29.92
2022-11-10T06:28:52.105Z,17.90
2022-11-10T06:31:37.890Z,17.33
2022-11-10T06:34:23.806Z,11.40
2022-11-10T06:37:09.590Z,21.10
2022-11-10T06:39:55.332Z,27.60
2022-11-10T06:42:40.967Z,16.65
2022-11-10T06:45:28.678Z,8.55
2022-11-10T06:48:14.606Z,14.95
2022-11-10T06:51:03.646Z,22.23
2022-11-10T06:53:49.126Z,24.27
2022-11-10T06:56:35.108Z,18.63
2022-11-10T06:59:20.794Z,13.82
2022-11-10T07:02:10.695Z,11.52
2022-11-10T07:04:56.331Z,20.25
2022-11-10T07:07:42.666Z,18.50
2022-11-10T07:13:13.558Z,10.57
2022-11-10T07:15:59.154Z,12.70
2022-11-10T07:18:47.471Z,16.98
2022-11-10T07:21:33.438Z,18.35
2022-11-10T07:24:19.325Z,19.38
2022-11-10T07:27:05.225Z,11.05
2022-11-10T07:29:50.613Z,13.52
2022-11-10T07:32:36.406Z,13.18
2022-11-10T07:35:22.033Z,15.50
2022-11-10T07:38:11.899Z,19.30
2022-11-10T07:40:57.781Z,7.60
2022-11-10T07:43:43.397Z,19.02
2022-11-10T07:46:29.409Z,16.55
2022-11-10T07:49:15.235Z,10.15
2022-11-10T07:52:01.079Z,13.18
2022-11-10T07:54:46.606Z,14.23
2022-11-10T07:57:34.177Z,14.48
2022-11-10T08:00:20.024Z,9.10
2022-11-10T08:03:13.281Z,9.82
2022-11-10T08:05:58.539Z,14.98
2022-11-10T08:08:46.438Z,8.65
2022-11-10T08:11:31.982Z,12.55
2022-11-10T08:14:17.627Z,16.48
2022-11-10T08:17:03.430Z,11.02
2022-11-10T08:19:49.035Z,5.90
2022-11-10T08:22:34.545Z,5.93
2022-11-10T08:25:20.340Z,11.75
2022-11-10T08:28:15.885Z,9.57
2022-11-10T08:31:05.784Z,12.10
2022-11-10T08:33:52.122Z,17.25
2022-11-10T08:36:38.236Z,7.70
2022-11-10T08:39:38.017Z,9.77
2022-11-10T08:42:24.523Z,12.38
2022-11-10T08:45:10.745Z,8.07
2022-11-10T08:48:17.749Z,9.88
2022-11-10T08:51:03.183Z,9.38
2022-11-10T08:53:48.740Z,12.68
2022-11-10T08:56:34.344Z,7.60
2022-11-10T08:59:19.763Z,6.00
2022-11-10T09:02:05.936Z,7.07
2022-11-10T09:04:51.592Z,17.55
2022-11-10T09:07:45.383Z,12.57
2022-11-10T09:10:38.393Z,17.02
2022-11-10T09:13:29.567Z,6.50
2022-11-10T09:16:16.250Z,8.52
2022-11-10T09:19:01.886Z,13.70
2022-11-10T09:21:47.621Z,10.95
2022-11-10T09:24:33.411Z,8.35
2022-11-10T09:27:19.401Z,11.00
2022-11-10T09:30:06.842Z,12.25
2022-11-10T09:32:56.826Z,12.48
2022-11-10T09:35:43.054Z,10.10
2022-11-10T09:38:28.507Z,12.38
2022-11-10T09:41:15.547Z,6.70
2022-11-10T09:44:22.599Z,14.63
2022-11-10T09:47:50.534Z,9.40
2022-11-10T09:50:41.903Z,10.65
2022-11-10T09:53:51.647Z,16.40
2022-11-10T09:56:38.211Z,8.70
2022-11-10T09:59:32.469Z,16.65
2022-11-10T10:02:37.049Z,14.35
2022-11-10T10:06:06.373Z,16.92
2022-11-10T10:09:33.170Z,14.95
2022-11-10T10:12:50.146Z,11.68
2022-11-10T10:16:20.693Z,10.88
2022-11-10T10:19:58.208Z,14.20
2022-11-10T10:23:54.465Z,10.40
2022-11-10T10:26:54.235Z,11.18
2022-11-10T10:29:46.906Z,14.93
2022-11-10T10:32:32.818Z,16.27
2022-11-10T10:35:19.250Z,6.97
2022-11-10T10:43:42.209Z,8.05
2022-11-10T10:46:32.817Z,13.10
2022-11-10T10:49:31.367Z,10.27
2022-11-10T10:52:25.249Z,7.22
2022-11-10T10:55:14.225Z,15.63
2022-11-10T10:58:06.248Z,13.38
2022-11-10T11:01:00.884Z,10.43
2022-11-10T11:03:52.950Z,12.40
2022-11-10T11:06:38.515Z,13.80
2022-11-10T11:09:31.233Z,15.00
2022-11-10T11:12:22.030Z,12.55
2022-11-10T11:15:29.457Z,15.63
2022-11-10T11:18:17.754Z,13.52
2022-11-10T11:21:30.100Z,18.30
2022-11-10T11:24:59.897Z,12.57
2022-11-10T11:28:19.124Z,12.95
2022-11-10T11:31:45.605Z,12.23
2022-11-10T11:34:58.025Z,4.95
2022-11-10T11:38:32.534Z,12.00
2022-11-10T11:41:48.841Z,9.02
2022-11-10T11:45:06.688Z,10.27
2022-11-10T11:48:30.513Z,10.90
2022-11-10T11:51:40.078Z,10.18
2022-11-10T11:54:29.694Z,8.63
2022-11-10T11:57:52.497Z,14.90
2022-11-10T12:00:57.336Z,10.82
2022-11-10T12:04:11.605Z,13.40
2022-11-10T12:07:40.374Z,15.88
2022-11-10T12:10:50.610Z,14.15
2022-11-10T12:14:06.501Z,5.80
2022-11-10T12:17:10.217Z,11.18
2022-11-10T12:20:41.291Z,6.47
2022-11-10T12:23:43.265Z,7.93
2022-11-10T12:26:52.783Z,16.52
2022-11-10T12:29:48.674Z,7.00
2022-11-10T12:32:43.058Z,13.33
2022-11-10T12:35:35.612Z,9.90
2022-11-10T12:38:28.263Z,9.60
2022-11-10T12:41:20.395Z,9.75
2022-11-10T12:44:28.419Z,7.53
2022-11-10T12:47:19.103Z,12.18
2022-11-10T12:50:49.245Z,9.85
2022-11-10T12:53:41.200Z,11.18
2022-11-10T12:56:42.629Z,7.30
2022-11-10T12:59:35.023Z,8.40
2022-11-10T13:02:31.186Z,8.20
2022-11-10T13:08:33.078Z,10.45
2022-11-10T13:11:18.671Z,9.85
2022-11-10T13:14:19.940Z,7.85
2022-11-10T13:17:06.092Z,13.88
2022-11-10T13:19:53.381Z,7.95
2022-11-10T13:22:42.957Z,13.30
2022-11-10T13:25:37.548Z,13.10
2022-11-10T13:28:47.668Z,8.70
2022-11-10T13:31:33.481Z,12.95
2022-11-10T13:34:19.150Z,6.68
2022-11-10T13:37:33.247Z,7.68
2022-11-10T13:40:18.769Z,9.13
2022-11-10T13:43:24.888Z,7.25
2022-11-10T13:46:10.473Z,11.40
2022-11-10T13:49:15.277Z,7.15
2022-11-10T13:52:22.452Z,10.15
2022-11-10T13:55:47.947Z,9.13
2022-11-10T13:58:34.967Z,7.10
2022-11-10T14:01:27.176Z,7.57
2022-11-10T14:04:43.712Z,6.70
2022-11-10T14:07:38.664Z,8.13
2022-11-10T14:10:48.345Z,9.68
2022-11-10T14:13:51.342Z,5.97
2022-11-10T14:16:43.047Z,9.63
2022-11-10T14:19:36.372Z,6.25
2022-11-10T14:22:37.984Z,8.70
2022-11-10T14:25:36.505Z,11.98
2022-11-10T14:28:31.621Z,5.93
2022-11-10T14:31:22.412Z,11.15
2022-11-10T14:34:16.672Z,8.75
2022-11-10T14:37:03.888Z,12.02
2022-11-10T14:39:57.842Z,8.10
2022-11-10T14:42:46.004Z,7.32
2022-11-10T14:45:31.767Z,9.27
2022-11-10T14:48:21.440Z,13.48
2022-11-10T14:51:13.175Z,5.78
2022-11-10T14:53:58.988Z,11.60
2022-11-10T14:56:44.915Z,10.05
2022-11-10T14:59:31.112Z,11.13
2022-11-10T15:02:18.877Z,7.45
2022-11-10T15:05:05.327Z,10.23
2022-11-10T15:07:56.548Z,8.70
2022-11-10T15:10:44.891Z,7.53
2022-11-10T15:13:33.504Z,9.23
2022-11-10T15:16:36.312Z,4.90
2022-11-10T15:19:29.346Z,5.05
2022-11-10T15:22:36.672Z,7.03
2022-11-10T15:25:25.987Z,6.70
2022-11-10T15:28:14.646Z,8.38
2022-11-10T15:31:02.213Z,4.25
2022-11-10T15:33:53.470Z,5.22
2022-11-10T15:36:41.801Z,4.53
2022-11-10T15:39:28.269Z,6.60
2022-11-10T15:42:24.745Z,6.97
2022-11-10T15:47:56.293Z,10.20
2022-11-10T15:53:38.477Z,7.65
2022-11-10T15:56:25.330Z,15.27
2022-11-10T15:59:11.087Z,4.45
2022-11-10T16:04:45.291Z,12.15
2022-11-10T16:07:31.030Z,5.35
2022-11-10T16:10:16.757Z,9.93
2022-11-10T16:13:02.321Z,5.95
2022-11-10T16:15:48.297Z,4.25
2022-11-10T16:21:23.354Z,5.40
2022-11-10T16:24:08.736Z,10.90
2022-11-10T16:26:54.655Z,9.38
2022-11-10T16:29:41.916Z,3.95
2022-11-10T16:32:27.584Z,5.00
2022-11-10T16:35:14.701Z,10.63
2022-11-10T16:38:00.240Z,8.10
2022-11-10T16:41:02.337Z,6.18
2022-11-10T16:43:48.405Z,5.28
2022-11-10T16:46:37.191Z,7.13
2022-11-10T16:49:45.826Z,2.50
2022-11-10T16:52:31.475Z,6.15
2022-11-10T16:55:17.185Z,10.82
2022-11-10T16:58:02.919Z,5.45
2022-11-10T17:00:49.444Z,3.92
2022-11-10T17:03:40.391Z,4.95
2022-11-10T17:06:28.292Z,6.22
2022-11-10T17:09:21.686Z,4.78
2022-11-10T17:12:13.011Z,3.20
2022-11-10T17:14:59.023Z,5.53
2022-11-10T17:17:48.015Z,3.72
2022-11-10T17:20:39.312Z,6.63
2022-11-10T17:23:26.487Z,8.85
2022-11-10T17:26:15.253Z,8.43
2022-11-10T17:29:00.941Z,7.03
2022-11-10T17:31:46.675Z,6.53
2022-11-10T17:34:32.532Z,3.55
2022-11-10T17:37:19.087Z,12.48
2022-11-10T17:40:18.997Z,3.50
2022-11-10T17:43:04.766Z,5.07
2022-11-10T17:45:50.743Z,5.18
2022-11-10T17:48:36.513Z,4.00
2022-11-10T17:51:23.477Z,6.65
2022-11-10T17:54:14.337Z,8.35
2022-11-10T17:56:59.985Z,1.98
2022-11-10T17:59:45.344Z,3.83
2022-11-10T18:02:31.216Z,6.72
2022-11-10T18:05:18.575Z,7.40
2022-11-10T18:08:04.351Z,11.43
2022-11-10T18:10:53.222Z,4.32
2022-11-10T18:13:40.949Z,12.07
2022-11-10T18:16:27.153Z,4.40
2022-11-10T18:21:57.931Z,8.10
2022-11-10T18:24:43.728Z,4.28
2022-11-10T18:27:29.392Z,5.05
2022-11-10T18:30:15.638Z,5.10
2022-11-10T18:33:03.454Z,18.17
2022-11-10T18:35:49.390Z,6.43
2022-11-10T18:38:35.912Z,5.07
2022-11-10T18:41:40.333Z,4.35
2022-11-10T18:44:26.383Z,3.40
2022-11-10T18:49:58.175Z,6.20
2022-11-10T18:52:44.520Z,7.80
2022-11-10T18:55:30.185Z,6.28
2022-11-10T18:58:15.733Z,5.60
2022-11-10T19:01:10.324Z,5.15
2022-11-10T19:03:56.008Z,3.97
2022-11-10T19:06:41.847Z,6.35
2022-11-10T19:09:27.382Z,9.98
2022-11-10T19:12:13.269Z,5.43
2022-11-10T19:14:58.765Z,4.88
2022-11-10T19:17:44.619Z,4.20
2022-11-10T19:20:30.138Z,8.10
2022-11-10T19:23:15.744Z,13.57
2022-11-10T19:26:09.907Z,8.25
2022-11-10T19:28:56.702Z,9.75
2022-11-10T19:31:43.650Z,5.40
2022-11-10T19:34:31.440Z,8.75
2022-11-10T19:37:17.039Z,6.18
2022-11-10T19:40:04.310Z,6.30
2022-11-10T19:42:50.105Z,9.13
2022-11-10T19:45:35.748Z,4.47
2022-11-10T19:48:21.582Z,7.57
2022-11-10T19:51:09.423Z,8.02
2022-11-10T19:54:02.928Z,7.10
2022-11-10T19:56:48.783Z,6.97
2022-11-10T19:59:34.960Z,11.27
2022-11-10T20:02:20.427Z,11.02
2022-11-10T20:05:12.357Z,4.38
2022-11-10T20:08:14.277Z,8.63
2022-11-10T20:11:08.542Z,5.70
2022-11-10T20:13:57.534Z,12.98
2022-11-10T20:16:43.595Z,5.60
2022-11-10T20:19:29.091Z,5.43
2022-11-10T20:22:15.191Z,8.60
2022-11-10T20:25:00.788Z,8.32
2022-11-10T20:27:46.528Z,6.03
2022-11-10T20:30:36.264Z,6.50
2022-11-10T20:33:22.256Z,7.65
2022-11-10T20:36:18.933Z,8.57
2022-11-10T20:39:06.450Z,6.82
2022-11-10T20:41:52.671Z,4.68
2022-11-10T20:44:38.276Z,8.27
2022-11-10T20:47:24.639Z,6.50
2022-11-10T20:50:14.927Z,11.90
2022-11-10T20:53:01.888Z,5.65
2022-11-10T20:55:54.682Z,8.20
2022-11-10T20:58:41.329Z,4.32
2022-11-10T21:01:27.810Z,8.35
2022-11-10T21:04:13.801Z,6.38
2022-11-10T21:06:59.419Z,2.90
2022-11-10T21:09:44.822Z,8.60
2022-11-10T21:12:48.923Z,9.98
2022-11-10T21:15:40.273Z,10.05
2022-11-10T21:18:35.593Z,6.18
2022-11-10T21:21:34.740Z,7.05
2022-11-10T21:24:20.838Z,5.72
2022-11-10T21:27:06.371Z,10.77
2022-11-10T21:29:52.727Z,9.45
2022-11-10T21:32:38.136Z,8.35
2022-11-10T21:35:23.394Z,11.65
2022-11-10T21:38:12.595Z,9.77
2022-11-10T21:40:58.461Z,8.57
2022-11-10T21:43:44.009Z,10.55
2022-11-10T21:46:29.759Z,10.38
2022-11-10T21:49:15.540Z,9.23
2022-11-10T21:52:01.294Z,9.70
2022-11-10T21:54:46.970Z,11.10
2022-11-10T21:57:32.653Z,7.63
2022-11-10T22:00:18.662Z,10.57
2022-11-10T22:03:05.709Z,9.40
2022-11-10T22:05:51.240Z,8.45
2022-11-10T22:08:38.111Z,8.30
2022-11-10T22:11:42.251Z,9.77
2022-11-10T22:15:03.565Z,8.20
2022-11-10T22:18:07.726Z,14.40
2022-11-10T22:20:53.292Z,10.18
2022-11-10T22:23:57.490Z,12.95
2022-11-10T22:26:43.273Z,12.65
2022-11-10T22:29:33.373Z,9.60
2022-11-10T22:32:18.897Z,10.50
2022-11-10T22:35:05.091Z,16.75
2022-11-10T22:37:50.417Z,15.70
2022-11-10T22:40:54.704Z,8.20
2022-11-10T22:43:58.703Z,11.98
2022-11-10T22:46:48.060Z,10.88
2022-11-10T22:49:33.596Z,8.45
2022-11-10T22:52:19.250Z,10.05
2022-11-10T22:55:05.434Z,8.18
2022-11-10T22:57:53.034Z,11.82
2022-11-10T23:00:38.504Z,9.57
2022-11-10T23:03:24.361Z,13.20
2022-11-10T23:08:56.909Z,11.02
2022-11-10T23:11:42.265Z,11.35
2022-11-10T23:14:27.977Z,12.60
2022-11-10T23:17:13.643Z,9.60
2022-11-10T23:19:59.298Z,9.55
2022-11-10T23:22:44.825Z,14.55
2022-11-10T23:25:30.277Z,10.93
2022-11-10T23:28:15.959Z,11.88
2022-11-10T23:31:07.216Z,13.30
2022-11-10T23:33:57.501Z,13.32
2022-11-10T23:36:43.169Z,12.57
2022-11-10T23:39:28.925Z,12.20
2022-11-10T23:42:14.585Z,12.85
2022-11-10T23:45:00.711Z,10.48
2022-11-10T23:47:46.249Z,13.25
2022-11-10T23:50:33.507Z,15.27
2022-11-10T23:53:19.734Z,16.27
2022-11-10T23:56:10.625Z,12.35
2022-11-10T23:58:56.630Z,20.15
